sensor_id;sensor_type;location;lat;lon;timestamp;pressure;altitude;pressure_sealevel;temperature;humidity
69780;BME280;57052;55.602;38.096;2023-06-26T00:00:41;100202.81;;;18.28;60.08
69780;BME280;57052;55.602;38.096;2023-06-26T00:03:06;100202.28;;;18.26;60.08
69780;BME280;57052;55.602;38.096;2023-06-26T00:05:32;100201.00;;;18.24;60.48
69780;BME280;57052;55.602;38.096;2023-06-26T00:07:58;100197.47;;;18.23;60.44
69780;BME280;57052;55.602;38.096;2023-06-26T00:10:27;100192.31;;;18.22;60.72
69780;BME280;57052;55.602;38.096;2023-06-26T00:12:53;100197.63;;;18.18;60.67
69780;BME280;57052;55.602;38.096;2023-06-26T00:15:19;100196.81;;;18.18;60.59
69780;BME280;57052;55.602;38.096;2023-06-26T00:17:45;100192.78;;;18.15;60.50
69780;BME280;57052;55.602;38.096;2023-06-26T00:20:11;100194.22;;;18.13;60.78
69780;BME280;57052;55.602;38.096;2023-06-26T00:22:37;100192.13;;;18.10;60.86
69780;BME280;57052;55.602;38.096;2023-06-26T00:25:07;100187.28;;;18.07;60.77
69780;BME280;57052;55.602;38.096;2023-06-26T00:27:32;100178.75;;;18.00;60.77
69780;BME280;57052;55.602;38.096;2023-06-26T00:29:58;100183.59;;;18.03;60.66
69780;BME280;57052;55.602;38.096;2023-06-26T00:32:24;100183.41;;;17.99;60.43
69780;BME280;57052;55.602;38.096;2023-06-26T00:34:50;100171.97;;;17.88;60.62
69780;BME280;57052;55.602;38.096;2023-06-26T00:37:16;100188.56;;;17.92;60.44
69780;BME280;57052;55.602;38.096;2023-06-26T00:39:41;100171.59;;;17.81;60.64
69780;BME280;57052;55.602;38.096;2023-06-26T00:42:07;100182.41;;;17.78;60.33
69780;BME280;57052;55.602;38.096;2023-06-26T00:44:33;100184.81;;;17.79;60.25
69780;BME280;57052;55.602;38.096;2023-06-26T00:46:59;100183.50;;;17.77;60.36
69780;BME280;57052;55.602;38.096;2023-06-26T00:49:26;100173.19;;;17.74;60.59
69780;BME280;57052;55.602;38.096;2023-06-26T00:51:53;100165.78;;;17.66;60.36
69780;BME280;57052;55.602;38.096;2023-06-26T00:54:19;100169.81;;;17.68;59.98
69780;BME280;57052;55.602;38.096;2023-06-26T00:56:46;100178.19;;;17.72;60.18
69780;BME280;57052;55.602;38.096;2023-06-26T00:59:13;100182.38;;;17.69;60.15
69780;BME280;57052;55.602;38.096;2023-06-26T01:01:39;100178.03;;;17.68;59.71
69780;BME280;57052;55.602;38.096;2023-06-26T01:04:04;100174.31;;;17.64;60.04
69780;BME280;57052;55.602;38.096;2023-06-26T01:06:32;100171.91;;;17.63;60.16
69780;BME280;57052;55.602;38.096;2023-06-26T01:09:02;100161.38;;;17.56;60.13
69780;BME280;57052;55.602;38.096;2023-06-26T01:11:28;100171.06;;;17.62;60.05
69780;BME280;57052;55.602;38.096;2023-06-26T01:13:55;100176.56;;;17.62;60.47
69780;BME280;57052;55.602;38.096;2023-06-26T01:16:23;100166.22;;;17.59;60.62
69780;BME280;57052;55.602;38.096;2023-06-26T01:18:50;100171.56;;;17.56;60.44
69780;BME280;57052;55.602;38.096;2023-06-26T01:21:17;100162.31;;;17.52;60.72
69780;BME280;57052;55.602;38.096;2023-06-26T01:24:04;100175.50;;;17.50;61.26
69780;BME280;57052;55.602;38.096;2023-06-26T01:26:32;100172.44;;;17.51;60.00
69780;BME280;57052;55.602;38.096;2023-06-26T01:29:04;100167.25;;;17.41;60.06
69780;BME280;57052;55.602;38.096;2023-06-26T01:31:32;100175.31;;;17.46;60.07
69780;BME280;57052;55.602;38.096;2023-06-26T01:33:59;100160.81;;;17.37;60.01
69780;BME280;57052;55.602;38.096;2023-06-26T01:36:25;100186.13;;;17.43;59.94
69780;BME280;57052;55.602;38.096;2023-06-26T01:38:51;100179.00;;;17.42;60.12
69780;BME280;57052;55.602;38.096;2023-06-26T01:41:18;100175.78;;;17.40;60.20
69780;BME280;57052;55.602;38.096;2023-06-26T01:46:42;100142.97;;;17.09;61.08
69780;BME280;57052;55.602;38.096;2023-06-26T01:49:21;100182.84;;;17.32;60.67
69780;BME280;57052;55.602;38.096;2023-06-26T01:54:39;100180.44;;;17.30;60.85
69780;BME280;57052;55.602;38.096;2023-06-26T01:57:08;100185.91;;;17.30;60.32
69780;BME280;57052;55.602;38.096;2023-06-26T01:59:37;100185.38;;;17.28;60.35
69780;BME280;57052;55.602;38.096;2023-06-26T02:02:07;100183.31;;;17.25;60.37
69780;BME280;57052;55.602;38.096;2023-06-26T02:04:33;100186.81;;;17.26;60.02
69780;BME280;57052;55.602;38.096;2023-06-26T02:06:58;100186.34;;;17.24;60.28
69780;BME280;57052;55.602;38.096;2023-06-26T02:09:24;100183.59;;;17.24;60.26
69780;BME280;57052;55.602;38.096;2023-06-26T02:11:49;100185.84;;;17.22;60.39
69780;BME280;57052;55.602;38.096;2023-06-26T02:14:15;100177.16;;;17.20;60.27
69780;BME280;57052;55.602;38.096;2023-06-26T02:16:41;100178.75;;;17.21;60.25
69780;BME280;57052;55.602;38.096;2023-06-26T02:19:07;100187.28;;;17.19;60.18
69780;BME280;57052;55.602;38.096;2023-06-26T02:21:53;100181.00;;;17.19;60.28
69780;BME280;57052;55.602;38.096;2023-06-26T02:24:18;100172.28;;;17.08;60.42
69780;BME280;57052;55.602;38.096;2023-06-26T02:26:44;100187.63;;;17.18;60.31
69780;BME280;57052;55.602;38.096;2023-06-26T02:29:11;100187.13;;;17.16;60.46
69780;BME280;57052;55.602;38.096;2023-06-26T02:31:37;100189.84;;;17.16;60.42
69780;BME280;57052;55.602;38.096;2023-06-26T02:34:03;100189.03;;;17.15;60.88
69780;BME280;57052;55.602;38.096;2023-06-26T02:36:29;100181.66;;;17.16;60.67
69780;BME280;57052;55.602;38.096;2023-06-26T02:38:55;100181.66;;;17.16;60.88
69780;BME280;57052;55.602;38.096;2023-06-26T02:41:21;100178.91;;;17.16;60.85
69780;BME280;57052;55.602;38.096;2023-06-26T02:43:46;100179.97;;;17.06;61.06
69780;BME280;57052;55.602;38.096;2023-06-26T02:46:12;100183.50;;;17.07;61.02
69780;BME280;57052;55.602;38.096;2023-06-26T02:48:38;100188.84;;;17.12;61.28
69780;BME280;57052;55.602;38.096;2023-06-26T02:51:03;100188.84;;;17.12;61.24
69780;BME280;57052;55.602;38.096;2023-06-26T02:53:29;100190.78;;;17.11;61.25
69780;BME280;57052;55.602;38.096;2023-06-26T02:55:56;100194.66;;;17.10;61.31
69780;BME280;57052;55.602;38.096;2023-06-26T02:58:22;100204.78;;;17.10;61.40
69780;BME280;57052;55.602;38.096;2023-06-26T03:00:47;100193.97;;;17.05;61.30
69780;BME280;57052;55.602;38.096;2023-06-26T03:03:13;100193.84;;;17.10;61.42
69780;BME280;57052;55.602;38.096;2023-06-26T03:05:39;100179.31;;;17.01;61.42
69780;BME280;57052;55.602;38.096;2023-06-26T03:08:05;100180.63;;;17.03;61.55
69780;BME280;57052;55.602;38.096;2023-06-26T03:10:30;100198.69;;;17.13;61.45
69780;BME280;57052;55.602;38.096;2023-06-26T03:12:56;100199.19;;;17.15;61.27
69780;BME280;57052;55.602;38.096;2023-06-26T03:15:22;100181.78;;;17.11;61.41
69780;BME280;57052;55.602;38.096;2023-06-26T03:17:47;100191.94;;;17.19;61.46
69780;BME280;57052;55.602;38.096;2023-06-26T03:20:13;100178.41;;;17.14;61.41
69780;BME280;57052;55.602;38.096;2023-06-26T03:22:39;100187.78;;;17.21;61.41
69780;BME280;57052;55.602;38.096;2023-06-26T03:25:05;100189.75;;;17.29;61.48
69780;BME280;57052;55.602;38.096;2023-06-26T03:27:31;100183.47;;;17.29;61.19
69780;BME280;57052;55.602;38.096;2023-06-26T03:29:56;100189.81;;;17.38;61.34
69780;BME280;57052;55.602;38.096;2023-06-26T03:32:22;100190.78;;;17.42;60.99
69780;BME280;57052;55.602;38.096;2023-06-26T03:34:48;100184.69;;;17.45;61.00
69780;BME280;57052;55.602;38.096;2023-06-26T03:37:13;100170.50;;;17.43;60.88
69780;BME280;57052;55.602;38.096;2023-06-26T03:39:39;100182.16;;;17.57;60.88
69780;BME280;57052;55.602;38.096;2023-06-26T03:42:05;100161.00;;;17.49;60.83
69780;BME280;57052;55.602;38.096;2023-06-26T03:44:31;100187.34;;;17.67;60.64
69780;BME280;57052;55.602;38.096;2023-06-26T03:46:57;100179.00;;;17.72;60.70
69780;BME280;57052;55.602;38.096;2023-06-26T03:49:22;100177.75;;;17.78;60.66
69780;BME280;57052;55.602;38.096;2023-06-26T03:51:48;100188.22;;;17.85;60.48
69780;BME280;57052;55.602;38.096;2023-06-26T03:54:14;100177.44;;;17.88;60.61
69780;BME280;57052;55.602;38.096;2023-06-26T03:56:40;100180.19;;;17.97;60.52
69780;BME280;57052;55.602;38.096;2023-06-26T03:59:05;100182.94;;;18.06;60.50
69780;BME280;57052;55.602;38.096;2023-06-26T04:01:31;100175.69;;;18.10;60.29
69780;BME280;57052;55.602;38.096;2023-06-26T04:03:57;100175.72;;;18.18;60.18
69780;BME280;57052;55.602;38.096;2023-06-26T04:06:23;100180.22;;;18.23;60.25
69780;BME280;57052;55.602;38.096;2023-06-26T04:08:48;100180.22;;;18.31;60.12
69780;BME280;57052;55.602;38.096;2023-06-26T04:11:14;100169.44;;;18.35;60.09
69780;BME280;57052;55.602;38.096;2023-06-26T04:13:40;100179.75;;;18.46;59.69
69780;BME280;57052;55.602;38.096;2023-06-26T04:16:05;100161.09;;;18.48;59.39
69780;BME280;57052;55.602;38.096;2023-06-26T04:18:32;100170.75;;;18.63;59.37
69780;BME280;57052;55.602;38.096;2023-06-26T04:21:11;100172.16;;;18.69;59.51
69780;BME280;57052;55.602;38.096;2023-06-26T04:23:40;100163.28;;;18.72;59.05
69780;BME280;57052;55.602;38.096;2023-06-26T04:26:07;100174.56;;;18.88;58.96
69780;BME280;57052;55.602;38.096;2023-06-26T04:28:33;100174.41;;;18.93;58.71
69780;BME280;57052;55.602;38.096;2023-06-26T04:31:00;100171.63;;;19.01;58.71
69780;BME280;57052;55.602;38.096;2023-06-26T04:33:27;100172.41;;;19.10;58.44
69780;BME280;57052;55.602;38.096;2023-06-26T04:35:53;100167.41;;;19.12;58.36
69780;BME280;57052;55.602;38.096;2023-06-26T04:38:19;100175.75;;;19.25;58.07
69780;BME280;57052;55.602;38.096;2023-06-26T04:40:46;100168.00;;;19.27;58.10
69780;BME280;57052;55.602;38.096;2023-06-26T04:43:11;100168.63;;;19.41;58.02
69780;BME280;57052;55.602;38.096;2023-06-26T04:45:37;100180.72;;;19.48;57.69
69780;BME280;57052;55.602;38.096;2023-06-26T04:48:03;100173.56;;;19.56;57.50
69780;BME280;57052;55.602;38.096;2023-06-26T04:50:30;100178.22;;;19.64;57.37
69780;BME280;57052;55.602;38.096;2023-06-26T04:52:56;100169.44;;;19.70;57.26
69780;BME280;57052;55.602;38.096;2023-06-26T04:55:25;100160.41;;;19.70;57.42
69780;BME280;57052;55.602;38.096;2023-06-26T04:57:51;100174.03;;;19.87;57.36
69780;BME280;57052;55.602;38.096;2023-06-26T05:00:17;100153.69;;;19.88;57.00
69780;BME280;57052;55.602;38.096;2023-06-26T05:02:43;100151.06;;;19.92;56.79
69780;BME280;57052;55.602;38.096;2023-06-26T05:05:09;100158.59;;;20.03;56.27
69780;BME280;57052;55.602;38.096;2023-06-26T05:07:36;100174.81;;;20.17;56.07
69780;BME280;57052;55.602;38.096;2023-06-26T05:10:02;100170.41;;;20.24;55.92
69780;BME280;57052;55.602;38.096;2023-06-26T05:12:29;100173.47;;;20.31;55.66
69780;BME280;57052;55.602;38.096;2023-06-26T05:14:55;100170.31;;;20.41;55.43
69780;BME280;57052;55.602;38.096;2023-06-26T05:17:20;100174.13;;;20.49;54.83
69780;BME280;57052;55.602;38.096;2023-06-26T05:19:46;100166.13;;;20.56;54.69
69780;BME280;57052;55.602;38.096;2023-06-26T05:22:12;100153.66;;;20.59;54.19
69780;BME280;57052;55.602;38.096;2023-06-26T05:24:39;100153.34;;;20.72;54.05
69780;BME280;57052;55.602;38.096;2023-06-26T05:27:05;100152.81;;;20.79;53.85
69780;BME280;57052;55.602;38.096;2023-06-26T05:29:32;100159.00;;;20.88;53.43
69780;BME280;57052;55.602;38.096;2023-06-26T05:31:59;100148.59;;;20.93;53.09
69780;BME280;57052;55.602;38.096;2023-06-26T05:34:25;100148.69;;;20.97;52.55
69780;BME280;57052;55.602;38.096;2023-06-26T05:36:58;100159.66;;;21.05;51.59
69780;BME280;57052;55.602;38.096;2023-06-26T05:39:24;100149.91;;;21.08;51.82
69780;BME280;57052;55.602;38.096;2023-06-26T05:41:51;100152.69;;;21.20;51.40
69780;BME280;57052;55.602;38.096;2023-06-26T05:44:17;100154.09;;;21.26;50.88
69780;BME280;57052;55.602;38.096;2023-06-26T05:46:43;100156.25;;;21.33;50.53
69780;BME280;57052;55.602;38.096;2023-06-26T05:49:09;100158.47;;;21.39;50.59
69780;BME280;57052;55.602;38.096;2023-06-26T05:51:35;100148.72;;;21.42;50.07
69780;BME280;57052;55.602;38.096;2023-06-26T05:54:01;100142.50;;;21.45;49.80
69780;BME280;57052;55.602;38.096;2023-06-26T05:56:28;100149.50;;;21.54;49.69
69780;BME280;57052;55.602;38.096;2023-06-26T05:58:54;100155.34;;;21.65;49.52
69780;BME280;57052;55.602;38.096;2023-06-26T06:01:20;100149.50;;;21.66;49.10
69780;BME280;57052;55.602;38.096;2023-06-26T06:03:46;100154.56;;;21.77;49.23
69780;BME280;57052;55.602;38.096;2023-06-26T06:06:12;100149.28;;;21.84;49.40
69780;BME280;57052;55.602;38.096;2023-06-26T06:08:38;100151.81;;;21.89;49.23
69780;BME280;57052;55.602;38.096;2023-06-26T06:11:03;100144.13;;;21.94;49.34
69780;BME280;57052;55.602;38.096;2023-06-26T06:13:29;100147.31;;;21.96;48.71
69780;BME280;57052;55.602;38.096;2023-06-26T06:15:55;100141.00;;;21.96;48.16
69780;BME280;57052;55.602;38.096;2023-06-26T06:18:21;100153.19;;;22.07;48.22
69780;BME280;57052;55.602;38.096;2023-06-26T06:20:47;100141.78;;;22.08;48.15
69780;BME280;57052;55.602;38.096;2023-06-26T06:23:13;100143.69;;;22.20;48.39
69780;BME280;57052;55.602;38.096;2023-06-26T06:25:39;100147.03;;;22.25;48.17
69780;BME280;57052;55.602;38.096;2023-06-26T06:28:05;100140.81;;;22.28;47.61
69780;BME280;57052;55.602;38.096;2023-06-26T06:30:31;100150.53;;;22.38;47.57
69780;BME280;57052;55.602;38.096;2023-06-26T06:32:57;100141.56;;;22.41;47.50
69780;BME280;57052;55.602;38.096;2023-06-26T06:35:23;100134.09;;;22.42;47.37
69780;BME280;57052;55.602;38.096;2023-06-26T06:37:50;100135.00;;;22.46;46.94
69780;BME280;57052;55.602;38.096;2023-06-26T06:40:15;100134.31;;;22.49;46.48
69780;BME280;57052;55.602;38.096;2023-06-26T06:42:41;100144.03;;;22.58;46.00
69780;BME280;57052;55.602;38.096;2023-06-26T06:45:07;100135.53;;;22.63;46.33
69780;BME280;57052;55.602;38.096;2023-06-26T06:47:34;100129.41;;;22.70;45.85
69780;BME280;57052;55.602;38.096;2023-06-26T06:50:00;100121.84;;;22.67;45.92
69780;BME280;57052;55.602;38.096;2023-06-26T06:52:38;100127.75;;;22.81;44.71
69780;BME280;57052;55.602;38.096;2023-06-26T06:55:06;100124.03;;;22.89;45.59
69780;BME280;57052;55.602;38.096;2023-06-26T06:57:35;100118.84;;;22.87;45.43
69780;BME280;57052;55.602;38.096;2023-06-26T07:00:08;100125.09;;;23.00;45.47
69780;BME280;57052;55.602;38.096;2023-06-26T07:02:35;100131.22;;;22.93;44.97
69780;BME280;57052;55.602;38.096;2023-06-26T07:05:02;100134.72;;;23.06;45.47
69780;BME280;57052;55.602;38.096;2023-06-26T07:07:31;100123.41;;;23.11;45.18
69780;BME280;57052;55.602;38.096;2023-06-26T07:09:59;100105.16;;;23.07;44.04
69780;BME280;57052;55.602;38.096;2023-06-26T07:12:25;100121.63;;;23.19;44.15
69780;BME280;57052;55.602;38.096;2023-06-26T07:14:50;100118.59;;;23.24;44.49
69780;BME280;57052;55.602;38.096;2023-06-26T07:17:16;100121.53;;;23.31;44.42
69780;BME280;57052;55.602;38.096;2023-06-26T07:19:42;100125.31;;;23.38;43.97
69780;BME280;57052;55.602;38.096;2023-06-26T07:22:07;100120.59;;;23.39;43.87
69780;BME280;57052;55.602;38.096;2023-06-26T07:24:33;100123.53;;;23.46;43.72
69780;BME280;57052;55.602;38.096;2023-06-26T07:26:59;100115.13;;;23.42;43.70
69780;BME280;57052;55.602;38.096;2023-06-26T07:29:26;100120.13;;;23.52;43.38
69780;BME280;57052;55.602;38.096;2023-06-26T07:31:52;100126.56;;;23.56;43.08
69780;BME280;57052;55.602;38.096;2023-06-26T07:34:17;100112.28;;;23.54;43.25
69780;BME280;57052;55.602;38.096;2023-06-26T07:36:43;100106.56;;;23.63;43.02
69780;BME280;57052;55.602;38.096;2023-06-26T07:39:08;100116.53;;;23.68;42.59
69780;BME280;57052;55.602;38.096;2023-06-26T07:41:34;100100.31;;;23.66;43.11
69780;BME280;57052;55.602;38.096;2023-06-26T07:44:00;100098.81;;;23.69;43.01
69780;BME280;57052;55.602;38.096;2023-06-26T07:46:25;100108.22;;;23.83;42.60
69780;BME280;57052;55.602;38.096;2023-06-26T07:48:51;100086.38;;;23.78;42.50
69780;BME280;57052;55.602;38.096;2023-06-26T07:51:17;100109.31;;;23.98;42.11
69780;BME280;57052;55.602;38.096;2023-06-26T07:53:43;100094.34;;;23.99;42.08
69780;BME280;57052;55.602;38.096;2023-06-26T07:56:08;100098.25;;;24.13;42.06
69780;BME280;57052;55.602;38.096;2023-06-26T07:58:34;100103.91;;;24.20;42.00
69780;BME280;57052;55.602;38.096;2023-06-26T08:01:00;100099.72;;;24.27;41.82
69780;BME280;57052;55.602;38.096;2023-06-26T08:03:25;100104.22;;;24.35;41.91
69780;BME280;57052;55.602;38.096;2023-06-26T08:05:51;100088.88;;;24.37;40.90
69780;BME280;57052;55.602;38.096;2023-06-26T08:08:17;100093.28;;;24.42;41.29
69780;BME280;57052;55.602;38.096;2023-06-26T08:10:43;100087.16;;;24.52;40.49
69780;BME280;57052;55.602;38.096;2023-06-26T08:13:08;100090.16;;;24.62;40.63
69780;BME280;57052;55.602;38.096;2023-06-26T08:15:35;100089.47;;;24.69;40.18
69780;BME280;57052;55.602;38.096;2023-06-26T08:18:00;100088.75;;;24.72;39.70
69780;BME280;57052;55.602;38.096;2023-06-26T08:20:26;100071.41;;;24.75;39.26
69780;BME280;57052;55.602;38.096;2023-06-26T08:22:53;100087.13;;;24.90;39.23
69780;BME280;57052;55.602;38.096;2023-06-26T08:25:20;100043.56;;;24.68;39.19
69780;BME280;57052;55.602;38.096;2023-06-26T08:27:46;100096.50;;;25.05;38.96
69780;BME280;57052;55.602;38.096;2023-06-26T08:30:12;100078.25;;;25.04;38.41
69780;BME280;57052;55.602;38.096;2023-06-26T08:32:39;100089.56;;;25.18;38.61
69780;BME280;57052;55.602;38.096;2023-06-26T08:35:06;100083.28;;;25.21;38.53
69780;BME280;57052;55.602;38.096;2023-06-26T08:37:32;100045.94;;;25.11;37.95
69780;BME280;57052;55.602;38.096;2023-06-26T08:39:59;100081.94;;;25.34;38.00
69780;BME280;57052;55.602;38.096;2023-06-26T08:42:25;100084.44;;;25.42;37.84
69780;BME280;57052;55.602;38.096;2023-06-26T08:44:51;100077.81;;;25.47;38.43
69780;BME280;57052;55.602;38.096;2023-06-26T08:47:18;100089.06;;;25.58;37.96
69780;BME280;57052;55.602;38.096;2023-06-26T08:49:53;100068.47;;;25.59;35.71
69780;BME280;57052;55.602;38.096;2023-06-26T08:52:29;100064.63;;;25.67;36.48
69780;BME280;57052;55.602;38.096;2023-06-26T08:54:58;100079.09;;;25.83;36.81
69780;BME280;57052;55.602;38.096;2023-06-26T08:57:26;100077.63;;;25.89;36.83
69780;BME280;57052;55.602;38.096;2023-06-26T08:59:52;100066.13;;;25.90;36.91
69780;BME280;57052;55.602;38.096;2023-06-26T09:02:18;100068.25;;;26.00;36.71
69780;BME280;57052;55.602;38.096;2023-06-26T09:04:47;100077.06;;;26.06;36.34
69780;BME280;57052;55.602;38.096;2023-06-26T09:07:15;100067.59;;;26.10;36.37
69780;BME280;57052;55.602;38.096;2023-06-26T09:09:40;100049.72;;;26.08;36.07
69780;BME280;57052;55.602;38.096;2023-06-26T09:12:08;100056.66;;;26.21;35.95
69780;BME280;57052;55.602;38.096;2023-06-26T09:14:34;100068.22;;;26.27;35.56
69780;BME280;57052;55.602;38.096;2023-06-26T09:16:59;100048.38;;;26.25;35.07
69780;BME280;57052;55.602;38.096;2023-06-26T09:19:26;100057.22;;;26.34;35.08
69780;BME280;57052;55.602;38.096;2023-06-26T09:21:52;100058.84;;;26.38;35.52
69780;BME280;57052;55.602;38.096;2023-06-26T09:24:18;100050.81;;;26.30;35.44
69780;BME280;57052;55.602;38.096;2023-06-26T09:26:43;100073.50;;;26.35;35.27
69780;BME280;57052;55.602;38.096;2023-06-26T09:29:09;100055.91;;;26.24;34.61
69780;BME280;57052;55.602;38.096;2023-06-26T09:31:39;100057.41;;;26.18;34.27
69780;BME280;57052;55.602;38.096;2023-06-26T09:34:05;100048.97;;;26.11;34.73
69780;BME280;57052;55.602;38.096;2023-06-26T09:36:33;100066.50;;;26.15;34.59
69780;BME280;57052;55.602;38.096;2023-06-26T09:39:04;100065.97;;;26.06;34.45
69780;BME280;57052;55.602;38.096;2023-06-26T09:41:34;100061.06;;;25.96;34.77
69780;BME280;57052;55.602;38.096;2023-06-26T09:44:01;100059.91;;;25.97;35.03
69780;BME280;57052;55.602;38.096;2023-06-26T09:46:30;100060.66;;;25.94;35.17
69780;BME280;57052;55.602;38.096;2023-06-26T09:49:01;100059.44;;;25.91;34.85
69780;BME280;57052;55.602;38.096;2023-06-26T09:51:35;100047.84;;;25.86;35.09
69780;BME280;57052;55.602;38.096;2023-06-26T09:54:02;100056.31;;;25.96;35.89
69780;BME280;57052;55.602;38.096;2023-06-26T09:56:29;100048.47;;;26.02;35.67
69780;BME280;57052;55.602;38.096;2023-06-26T09:58:56;100054.84;;;26.06;35.83
69780;BME280;57052;55.602;38.096;2023-06-26T10:01:26;100040.97;;;26.06;35.39
69780;BME280;57052;55.602;38.096;2023-06-26T10:03:52;100047.75;;;26.08;35.60
69780;BME280;57052;55.602;38.096;2023-06-26T10:09:01;100046.53;;;26.06;35.35
69780;BME280;57052;55.602;38.096;2023-06-26T10:11:34;100038.72;;;26.12;35.52
69780;BME280;57052;55.602;38.096;2023-06-26T10:14:03;100036.06;;;26.22;34.91
69780;BME280;57052;55.602;38.096;2023-06-26T10:16:31;100024.22;;;26.25;35.06
69780;BME280;57052;55.602;38.096;2023-06-26T10:19:03;100036.72;;;26.45;34.75
69780;BME280;57052;55.602;38.096;2023-06-26T10:21:31;100036.13;;;26.62;34.96
69780;BME280;57052;55.602;38.096;2023-06-26T10:23:58;100031.97;;;26.83;34.81
69780;BME280;57052;55.602;38.096;2023-06-26T10:26:24;100034.91;;;27.04;34.58
69780;BME280;57052;55.602;38.096;2023-06-26T10:28:52;100021.16;;;27.21;34.29
69780;BME280;57052;55.602;38.096;2023-06-26T10:31:21;100020.59;;;27.49;33.78
69780;BME280;57052;55.602;38.096;2023-06-26T10:33:49;100021.84;;;27.59;33.72
69780;BME280;57052;55.602;38.096;2023-06-26T10:36:19;100022.28;;;27.68;32.51
69780;BME280;57052;55.602;38.096;2023-06-26T10:38:50;100020.28;;;27.68;31.54
69780;BME280;57052;55.602;38.096;2023-06-26T10:41:20;100019.13;;;27.69;32.05
69780;BME280;57052;55.602;38.096;2023-06-26T10:43:49;100017.97;;;27.81;32.52
69780;BME280;57052;55.602;38.096;2023-06-26T10:46:15;100016.94;;;28.07;33.03
69780;BME280;57052;55.602;38.096;2023-06-26T10:49:00;100015.41;;;28.34;31.36
69780;BME280;57052;55.602;38.096;2023-06-26T10:51:27;99998.00;;;28.65;31.90
69780;BME280;57052;55.602;38.096;2023-06-26T10:54:00;99994.03;;;28.94;29.86
69780;BME280;57052;55.602;38.096;2023-06-26T10:56:55;100004.00;;;29.31;28.65
69780;BME280;57052;55.602;38.096;2023-06-26T10:59:26;99990.41;;;29.47;29.46
69780;BME280;57052;55.602;38.096;2023-06-26T11:02:03;99986.41;;;29.55;28.36
69780;BME280;57052;55.602;38.096;2023-06-26T11:04:50;99984.78;;;29.78;27.09
69780;BME280;57052;55.602;38.096;2023-06-26T11:07:25;99987.03;;;30.08;28.19
69780;BME280;57052;55.602;38.096;2023-06-26T11:12:36;99980.28;;;30.64;26.23
69780;BME280;57052;55.602;38.096;2023-06-26T11:15:03;99980.47;;;30.94;27.44
69780;BME280;57052;55.602;38.096;2023-06-26T11:17:29;99968.75;;;31.10;27.38
69780;BME280;57052;55.602;38.096;2023-06-26T11:19:56;99974.88;;;31.39;27.01
69780;BME280;57052;55.602;38.096;2023-06-26T11:22:23;99971.72;;;31.70;26.71
69780;BME280;57052;55.602;38.096;2023-06-26T11:24:52;99976.41;;;31.81;25.82
69780;BME280;57052;55.602;38.096;2023-06-26T11:27:18;99971.41;;;31.99;26.62
69780;BME280;57052;55.602;38.096;2023-06-26T11:29:48;99965.84;;;32.22;25.00
69780;BME280;57052;55.602;38.096;2023-06-26T11:32:15;99961.28;;;32.35;26.03
69780;BME280;57052;55.602;38.096;2023-06-26T11:34:40;99966.03;;;32.65;25.76
69780;BME280;57052;55.602;38.096;2023-06-26T11:37:08;99967.53;;;32.96;25.59
69780;BME280;57052;55.602;38.096;2023-06-26T11:39:34;99974.38;;;33.18;25.19
69780;BME280;57052;55.602;38.096;2023-06-26T11:42:00;99955.09;;;33.40;24.60
69780;BME280;57052;55.602;38.096;2023-06-26T11:44:30;99949.91;;;33.62;23.13
69780;BME280;57052;55.602;38.096;2023-06-26T11:46:57;99955.78;;;33.67;23.59
69780;BME280;57052;55.602;38.096;2023-06-26T11:49:23;99958.53;;;33.71;23.30
69780;BME280;57052;55.602;38.096;2023-06-26T11:51:51;99952.47;;;33.72;23.47
69780;BME280;57052;55.602;38.096;2023-06-26T11:54:27;99940.03;;;33.73;22.50
69780;BME280;57052;55.602;38.096;2023-06-26T11:56:54;99935.06;;;33.81;23.35
69780;BME280;57052;55.602;38.096;2023-06-26T11:59:22;99932.16;;;34.04;23.67
69780;BME280;57052;55.602;38.096;2023-06-26T12:01:49;99932.91;;;34.24;23.01
69780;BME280;57052;55.602;38.096;2023-06-26T12:04:17;99931.88;;;34.50;22.78
69780;BME280;57052;55.602;38.096;2023-06-26T12:06:46;99931.47;;;34.68;22.22
69780;BME280;57052;55.602;38.096;2023-06-26T12:09:13;99922.69;;;34.82;22.26
69780;BME280;57052;55.602;38.096;2023-06-26T12:11:43;99931.53;;;34.97;21.12
69780;BME280;57052;55.602;38.096;2023-06-26T12:14:10;99920.63;;;35.15;21.62
69780;BME280;57052;55.602;38.096;2023-06-26T12:16:37;99920.66;;;35.27;21.83
69780;BME280;57052;55.602;38.096;2023-06-26T12:19:06;99911.25;;;35.34;21.35
69780;BME280;57052;55.602;38.096;2023-06-26T12:24:09;99902.38;;;35.48;21.31
69780;BME280;57052;55.602;38.096;2023-06-26T12:26:35;99917.22;;;35.65;21.09
69780;BME280;57052;55.602;38.096;2023-06-26T12:29:09;99924.09;;;35.76;20.46
69780;BME280;57052;55.602;38.096;2023-06-26T12:31:35;99911.97;;;35.92;20.96
69780;BME280;57052;55.602;38.096;2023-06-26T12:34:01;99915.72;;;36.01;20.35
69780;BME280;57052;55.602;38.096;2023-06-26T12:36:27;99893.19;;;36.01;20.63
69780;BME280;57052;55.602;38.096;2023-06-26T12:38:53;99911.31;;;36.13;19.65
69780;BME280;57052;55.602;38.096;2023-06-26T12:41:24;99903.41;;;36.08;19.20
69780;BME280;57052;55.602;38.096;2023-06-26T12:43:55;99916.84;;;36.17;18.24
69780;BME280;57052;55.602;38.096;2023-06-26T12:46:33;99897.78;;;36.08;17.57
69780;BME280;57052;55.602;38.096;2023-06-26T12:48:59;99903.66;;;36.01;19.56
69780;BME280;57052;55.602;38.096;2023-06-26T12:51:25;99912.84;;;35.76;19.31
69780;BME280;57052;55.602;38.096;2023-06-26T12:53:53;99909.50;;;35.53;19.09